sensor_id;sensor_type;location;lat;lon;timestamp;temperature;humidity
39751;DHT22;37579;51.074;17.004;2022-08-06T00:02:19;29.10;53.60
39751;DHT22;37579;51.074;17.004;2022-08-06T00:04:47;29.10;53.70
39751;DHT22;37579;51.074;17.004;2022-08-06T00:07:13;29.10;53.70
39751;DHT22;37579;51.074;17.004;2022-08-06T00:09:39;29.10;53.70
39751;DHT22;37579;51.074;17.004;2022-08-06T00:12:05;29.10;53.70
39751;DHT22;37579;51.074;17.004;2022-08-06T00:14:31;29.10;53.80
39751;DHT22;37579;51.074;17.004;2022-08-06T00:16:57;29.00;53.70
39751;DHT22;37579;51.074;17.004;2022-08-06T00:19:24;29.10;53.80
39751;DHT22;37579;51.074;17.004;2022-08-06T00:21:50;29.10;53.80
39751;DHT22;37579;51.074;17.004;2022-08-06T00:24:16;29.10;53.70
39751;DHT22;37579;51.074;17.004;2022-08-06T00:26:42;29.00;54.40
39751;DHT22;37579;51.074;17.004;2022-08-06T00:29:08;29.10;53.80
39751;DHT22;37579;51.074;17.004;2022-08-06T00:31:34;29.00;53.70
39751;DHT22;37579;51.074;17.004;2022-08-06T00:34:00;29.10;53.80
39751;DHT22;37579;51.074;17.004;2022-08-06T00:36:30;29.10;53.70
39751;DHT22;37579;51.074;17.004;2022-08-06T00:38:57;29.10;53.80
39751;DHT22;37579;51.074;17.004;2022-08-06T00:41:23;29.10;53.80
39751;DHT22;37579;51.074;17.004;2022-08-06T00:43:49;29.10;53.80
39751;DHT22;37579;51.074;17.004;2022-08-06T00:46:14;29.10;53.90
39751;DHT22;37579;51.074;17.004;2022-08-06T00:48:40;29.10;53.80
39751;DHT22;37579;51.074;17.004;2022-08-06T00:51:06;29.00;53.70
39751;DHT22;37579;51.074;17.004;2022-08-06T00:53:32;29.10;53.80
39751;DHT22;37579;51.074;17.004;2022-08-06T00:55:57;29.00;53.80
39751;DHT22;37579;51.074;17.004;2022-08-06T00:58:24;29.00;53.80
39751;DHT22;37579;51.074;17.004;2022-08-06T01:00:50;29.10;53.80
39751;DHT22;37579;51.074;17.004;2022-08-06T01:03:15;29.10;53.80
39751;DHT22;37579;51.074;17.004;2022-08-06T01:05:45;29.10;53.80
39751;DHT22;37579;51.074;17.004;2022-08-06T01:08:11;29.10;53.90
39751;DHT22;37579;51.074;17.004;2022-08-06T01:10:37;29.10;53.90
39751;DHT22;37579;51.074;17.004;2022-08-06T01:13:03;29.10;53.90
39751;DHT22;37579;51.074;17.004;2022-08-06T01:15:29;29.10;53.80
39751;DHT22;37579;51.074;17.004;2022-08-06T01:18:00;29.10;53.90
39751;DHT22;37579;51.074;17.004;2022-08-06T01:28:34;29.10;53.90
39751;DHT22;37579;51.074;17.004;2022-08-06T01:31:09;29.10;54.00
39751;DHT22;37579;51.074;17.004;2022-08-06T01:33:43;29.00;53.90
39751;DHT22;37579;51.074;17.004;2022-08-06T01:38:52;29.00;53.90
39751;DHT22;37579;51.074;17.004;2022-08-06T01:41:23;29.00;53.90
39751;DHT22;37579;51.074;17.004;2022-08-06T01:44:18;29.10;54.00
39751;DHT22;37579;51.074;17.004;2022-08-06T01:46:47;29.10;54.00
39751;DHT22;37579;51.074;17.004;2022-08-06T01:49:16;29.10;54.00
39751;DHT22;37579;51.074;17.004;2022-08-06T01:51:44;29.10;54.00
39751;DHT22;37579;51.074;17.004;2022-08-06T01:54:12;29.10;54.00
39751;DHT22;37579;51.074;17.004;2022-08-06T01:56:41;29.10;54.00
39751;DHT22;37579;51.074;17.004;2022-08-06T01:59:07;29.10;54.00
39751;DHT22;37579;51.074;17.004;2022-08-06T02:01:36;29.10;54.70
39751;DHT22;37579;51.074;17.004;2022-08-06T02:04:04;29.00;53.90
39751;DHT22;37579;51.074;17.004;2022-08-06T02:06:33;29.10;54.10
39751;DHT22;37579;51.074;17.004;2022-08-06T02:09:04;29.10;54.00
39751;DHT22;37579;51.074;17.004;2022-08-06T02:11:34;29.00;54.00
39751;DHT22;37579;51.074;17.004;2022-08-06T02:14:00;29.10;54.00
39751;DHT22;37579;51.074;17.004;2022-08-06T02:16:31;29.00;54.00
39751;DHT22;37579;51.074;17.004;2022-08-06T02:18:59;29.00;54.00
39751;DHT22;37579;51.074;17.004;2022-08-06T02:21:27;29.10;54.00
39751;DHT22;37579;51.074;17.004;2022-08-06T02:23:54;29.10;54.00
39751;DHT22;37579;51.074;17.004;2022-08-06T02:26:23;29.10;54.10
39751;DHT22;37579;51.074;17.004;2022-08-06T02:28:52;29.10;54.10
39751;DHT22;37579;51.074;17.004;2022-08-06T02:31:18;29.10;54.00
39751;DHT22;37579;51.074;17.004;2022-08-06T02:33:44;29.10;54.10
39751;DHT22;37579;51.074;17.004;2022-08-06T02:36:34;29.10;54.10
39751;DHT22;37579;51.074;17.004;2022-08-06T02:39:28;29.10;54.10
39751;DHT22;37579;51.074;17.004;2022-08-06T02:42:06;29.00;54.10
39751;DHT22;37579;51.074;17.004;2022-08-06T02:44:48;29.00;54.00
39751;DHT22;37579;51.074;17.004;2022-08-06T02:47:25;29.00;54.00
39751;DHT22;37579;51.074;17.004;2022-08-06T02:49:59;29.00;54.00
39751;DHT22;37579;51.074;17.004;2022-08-06T02:52:41;29.10;54.10
39751;DHT22;37579;51.074;17.004;2022-08-06T02:55:12;29.10;54.00
39751;DHT22;37579;51.074;17.004;2022-08-06T02:58:01;29.00;54.00
39751;DHT22;37579;51.074;17.004;2022-08-06T03:00:29;29.00;54.00
39751;DHT22;37579;51.074;17.004;2022-08-06T03:03:00;29.00;54.00
39751;DHT22;37579;51.074;17.004;2022-08-06T03:05:27;29.00;54.10
39751;DHT22;37579;51.074;17.004;2022-08-06T03:07:56;29.00;54.10
39751;DHT22;37579;51.074;17.004;2022-08-06T03:10:26;29.00;54.10
39751;DHT22;37579;51.074;17.004;2022-08-06T03:12:54;29.00;54.10
39751;DHT22;37579;51.074;17.004;2022-08-06T03:15:20;29.00;54.00
39751;DHT22;37579;51.074;17.004;2022-08-06T03:17:49;29.00;54.10
39751;DHT22;37579;51.074;17.004;2022-08-06T03:20:20;29.00;54.10
39751;DHT22;37579;51.074;17.004;2022-08-06T03:22:50;29.00;54.10
39751;DHT22;37579;51.074;17.004;2022-08-06T03:25:18;29.00;54.10
39751;DHT22;37579;51.074;17.004;2022-08-06T03:27:47;29.00;54.10
39751;DHT22;37579;51.074;17.004;2022-08-06T03:30:18;29.00;54.00
39751;DHT22;37579;51.074;17.004;2022-08-06T03:32:46;29.00;54.10
39751;DHT22;37579;51.074;17.004;2022-08-06T03:35:14;29.00;54.10
39751;DHT22;37579;51.074;17.004;2022-08-06T03:37:42;29.00;54.10
39751;DHT22;37579;51.074;17.004;2022-08-06T03:40:10;29.00;54.10
39751;DHT22;37579;51.074;17.004;2022-08-06T03:42:37;29.00;54.00
39751;DHT22;37579;51.074;17.004;2022-08-06T03:45:04;29.00;54.10
39751;DHT22;37579;51.074;17.004;2022-08-06T03:47:36;29.00;54.10
39751;DHT22;37579;51.074;17.004;2022-08-06T03:50:09;29.00;54.20
39751;DHT22;37579;51.074;17.004;2022-08-06T03:52:47;29.00;54.10
39751;DHT22;37579;51.074;17.004;2022-08-06T03:55:22;29.00;54.10
39751;DHT22;37579;51.074;17.004;2022-08-06T03:57:50;29.00;54.20
39751;DHT22;37579;51.074;17.004;2022-08-06T04:00:20;29.00;54.20
39751;DHT22;37579;51.074;17.004;2022-08-06T04:02:49;29.00;54.20
39751;DHT22;37579;51.074;17.004;2022-08-06T04:05:25;29.00;54.10
39751;DHT22;37579;51.074;17.004;2022-08-06T04:07:59;29.00;54.10
39751;DHT22;37579;51.074;17.004;2022-08-06T04:10:29;29.00;54.10
39751;DHT22;37579;51.074;17.004;2022-08-06T04:12:56;29.00;54.10
39751;DHT22;37579;51.074;17.004;2022-08-06T04:15:22;29.00;54.10
39751;DHT22;37579;51.074;17.004;2022-08-06T04:17:50;29.00;54.10
39751;DHT22;37579;51.074;17.004;2022-08-06T04:20:20;29.00;54.20
39751;DHT22;37579;51.074;17.004;2022-08-06T04:22:46;29.00;54.20
39751;DHT22;37579;51.074;17.004;2022-08-06T04:25:11;29.00;54.10
39751;DHT22;37579;51.074;17.004;2022-08-06T04:27:39;29.00;54.10
39751;DHT22;37579;51.074;17.004;2022-08-06T04:30:07;29.00;54.20
39751;DHT22;37579;51.074;17.004;2022-08-06T04:32:33;29.00;54.10
39751;DHT22;37579;51.074;17.004;2022-08-06T04:35:03;28.90;54.10
39751;DHT22;37579;51.074;17.004;2022-08-06T04:37:30;29.00;54.10
39751;DHT22;37579;51.074;17.004;2022-08-06T04:39:57;28.90;54.10
39751;DHT22;37579;51.074;17.004;2022-08-06T04:42:23;29.00;54.20
39751;DHT22;37579;51.074;17.004;2022-08-06T04:44:50;28.90;54.00
39751;DHT22;37579;51.074;17.004;2022-08-06T04:47:17;28.90;54.00
39751;DHT22;37579;51.074;17.004;2022-08-06T04:49:43;29.00;54.10
39751;DHT22;37579;51.074;17.004;2022-08-06T04:52:24;29.00;54.10
39751;DHT22;37579;51.074;17.004;2022-08-06T04:54:50;28.90;54.00
39751;DHT22;37579;51.074;17.004;2022-08-06T04:57:16;29.00;54.10
39751;DHT22;37579;51.074;17.004;2022-08-06T04:59:42;28.90;54.00
39751;DHT22;37579;51.074;17.004;2022-08-06T05:02:08;29.00;54.00
39751;DHT22;37579;51.074;17.004;2022-08-06T05:04:34;28.90;54.00
39751;DHT22;37579;51.074;17.004;2022-08-06T05:07:10;29.00;54.00
39751;DHT22;37579;51.074;17.004;2022-08-06T05:09:38;28.90;54.00
39751;DHT22;37579;51.074;17.004;2022-08-06T05:12:08;29.00;54.00
39751;DHT22;37579;51.074;17.004;2022-08-06T05:14:43;28.90;53.90
39751;DHT22;37579;51.074;17.004;2022-08-06T05:17:14;28.90;53.90
39751;DHT22;37579;51.074;17.004;2022-08-06T05:19:48;29.00;54.60
39751;DHT22;37579;51.074;17.004;2022-08-06T05:22:16;28.90;53.90
39751;DHT22;37579;51.074;17.004;2022-08-06T05:24:43;28.90;53.90
39751;DHT22;37579;51.074;17.004;2022-08-06T05:27:10;28.90;53.90
39751;DHT22;37579;51.074;17.004;2022-08-06T05:29:36;28.90;53.90
39751;DHT22;37579;51.074;17.004;2022-08-06T05:32:02;28.90;53.90
39751;DHT22;37579;51.074;17.004;2022-08-06T05:34:29;28.90;53.90
39751;DHT22;37579;51.074;17.004;2022-08-06T05:36:55;28.90;53.90
39751;DHT22;37579;51.074;17.004;2022-08-06T05:39:20;28.90;53.90
39751;DHT22;37579;51.074;17.004;2022-08-06T05:41:48;28.90;53.90
39751;DHT22;37579;51.074;17.004;2022-08-06T05:44:14;28.90;53.80
39751;DHT22;37579;51.074;17.004;2022-08-06T05:46:51;28.90;53.90
39751;DHT22;37579;51.074;17.004;2022-08-06T05:49:48;28.90;53.90
39751;DHT22;37579;51.074;17.004;2022-08-06T05:52:26;28.90;53.90
39751;DHT22;37579;51.074;17.004;2022-08-06T05:55:11;28.90;53.90
39751;DHT22;37579;51.074;17.004;2022-08-06T06:00:15;28.90;53.80
39751;DHT22;37579;51.074;17.004;2022-08-06T06:02:44;28.90;53.80
39751;DHT22;37579;51.074;17.004;2022-08-06T06:05:11;28.90;54.40
39751;DHT22;37579;51.074;17.004;2022-08-06T06:07:38;28.90;53.80
39751;DHT22;37579;51.074;17.004;2022-08-06T06:10:05;28.90;53.80
39751;DHT22;37579;51.074;17.004;2022-08-06T06:12:32;28.90;53.80
39751;DHT22;37579;51.074;17.004;2022-08-06T06:15:00;28.90;53.80
39751;DHT22;37579;51.074;17.004;2022-08-06T06:23:11;28.90;53.70
39751;DHT22;37579;51.074;17.004;2022-08-06T06:26:01;28.90;53.70
39751;DHT22;37579;51.074;17.004;2022-08-06T06:28:34;28.90;53.70
39751;DHT22;37579;51.074;17.004;2022-08-06T06:34:03;28.90;53.70
39751;DHT22;37579;51.074;17.004;2022-08-06T06:36:51;28.90;53.80
39751;DHT22;37579;51.074;17.004;2022-08-06T06:41:55;28.90;53.70
39751;DHT22;37579;51.074;17.004;2022-08-06T06:44:44;28.90;53.70
39751;DHT22;37579;51.074;17.004;2022-08-06T06:47:19;28.90;53.80
39751;DHT22;37579;51.074;17.004;2022-08-06T06:49:47;28.90;53.80
39751;DHT22;37579;51.074;17.004;2022-08-06T06:52:26;28.90;53.70
39751;DHT22;37579;51.074;17.004;2022-08-06T06:55:13;28.90;53.70
39751;DHT22;37579;51.074;17.004;2022-08-06T06:57:44;28.90;53.70
39751;DHT22;37579;51.074;17.004;2022-08-06T07:00:12;28.90;53.70
39751;DHT22;37579;51.074;17.004;2022-08-06T07:02:39;28.90;53.70
39751;DHT22;37579;51.074;17.004;2022-08-06T07:05:08;28.90;53.70
39751;DHT22;37579;51.074;17.004;2022-08-06T07:07:38;28.90;53.70
39751;DHT22;37579;51.074;17.004;2022-08-06T07:10:07;28.90;53.70
39751;DHT22;37579;51.074;17.004;2022-08-06T07:12:34;28.90;53.70
39751;DHT22;37579;51.074;17.004;2022-08-06T07:15:06;28.90;53.70
39751;DHT22;37579;51.074;17.004;2022-08-06T07:17:33;28.90;53.70
39751;DHT22;37579;51.074;17.004;2022-08-06T07:20:04;28.90;53.60
39751;DHT22;37579;51.074;17.004;2022-08-06T07:22:35;28.90;53.60
39751;DHT22;37579;51.074;17.004;2022-08-06T07:25:03;28.90;53.70
39751;DHT22;37579;51.074;17.004;2022-08-06T07:27:41;28.90;53.70
39751;DHT22;37579;51.074;17.004;2022-08-06T07:30:08;28.90;53.60
39751;DHT22;37579;51.074;17.004;2022-08-06T07:32:35;28.90;53.60
39751;DHT22;37579;51.074;17.004;2022-08-06T07:35:03;28.90;53.60
39751;DHT22;37579;51.074;17.004;2022-08-06T07:37:31;28.90;53.60
39751;DHT22;37579;51.074;17.004;2022-08-06T07:39:59;28.90;53.60
39751;DHT22;37579;51.074;17.004;2022-08-06T07:42:26;28.90;53.60
39751;DHT22;37579;51.074;17.004;2022-08-06T07:44:59;28.90;53.60
39751;DHT22;37579;51.074;17.004;2022-08-06T07:47:38;28.90;53.60
39751;DHT22;37579;51.074;17.004;2022-08-06T07:50:05;28.90;53.60
39751;DHT22;37579;51.074;17.004;2022-08-06T07:52:32;28.90;53.60
39751;DHT22;37579;51.074;17.004;2022-08-06T07:54:59;28.90;53.60
39751;DHT22;37579;51.074;17.004;2022-08-06T07:57:26;28.90;53.50
39751;DHT22;37579;51.074;17.004;2022-08-06T07:59:52;28.90;53.60
39751;DHT22;37579;51.074;17.004;2022-08-06T08:02:18;28.80;53.50
39751;DHT22;37579;51.074;17.004;2022-08-06T08:04:44;28.90;53.60
39751;DHT22;37579;51.074;17.004;2022-08-06T08:07:30;28.90;53.60
39751;DHT22;37579;51.074;17.004;2022-08-06T08:09:58;28.80;53.50
39751;DHT22;37579;51.074;17.004;2022-08-06T08:12:25;28.90;53.60
39751;DHT22;37579;51.074;17.004;2022-08-06T08:14:52;28.90;53.60
39751;DHT22;37579;51.074;17.004;2022-08-06T08:17:17;28.90;53.60
39751;DHT22;37579;51.074;17.004;2022-08-06T08:19:43;28.90;53.50
39751;DHT22;37579;51.074;17.004;2022-08-06T08:22:14;28.90;53.50
39751;DHT22;37579;51.074;17.004;2022-08-06T08:24:43;28.90;53.50
39751;DHT22;37579;51.074;17.004;2022-08-06T08:27:10;28.90;53.60
39751;DHT22;37579;51.074;17.004;2022-08-06T08:29:40;28.90;53.50
39751;DHT22;37579;51.074;17.004;2022-08-06T08:32:08;28.90;53.60
39751;DHT22;37579;51.074;17.004;2022-08-06T08:34:34;28.90;53.50
39751;DHT22;37579;51.074;17.004;2022-08-06T08:37:01;28.90;53.60
39751;DHT22;37579;51.074;17.004;2022-08-06T08:39:27;28.90;53.50
39751;DHT22;37579;51.074;17.004;2022-08-06T08:42:23;28.90;53.50
39751;DHT22;37579;51.074;17.004;2022-08-06T08:44:52;28.90;53.50
39751;DHT22;37579;51.074;17.004;2022-08-06T08:47:20;28.90;53.50
39751;DHT22;37579;51.074;17.004;2022-08-06T08:49:51;28.90;53.50
39751;DHT22;37579;51.074;17.004;2022-08-06T08:52:33;28.80;53.40
39751;DHT22;37579;51.074;17.004;2022-08-06T08:55:05;28.80;53.40
39751;DHT22;37579;51.074;17.004;2022-08-06T08:57:32;28.90;53.50
39751;DHT22;37579;51.074;17.004;2022-08-06T09:00:01;28.90;53.40
39751;DHT22;37579;51.074;17.004;2022-08-06T09:02:27;28.90;53.40
39751;DHT22;37579;51.074;17.004;2022-08-06T09:04:53;28.90;53.40
39751;DHT22;37579;51.074;17.004;2022-08-06T09:07:20;28.90;53.40
39751;DHT22;37579;51.074;17.004;2022-08-06T09:09:46;28.90;53.30
39751;DHT22;37579;51.074;17.004;2022-08-06T09:12:11;28.90;53.40
39751;DHT22;37579;51.074;17.004;2022-08-06T09:14:37;28.90;53.40
39751;DHT22;37579;51.074;17.004;2022-08-06T09:17:04;28.90;53.40
39751;DHT22;37579;51.074;17.004;2022-08-06T09:19:31;28.80;53.30
39751;DHT22;37579;51.074;17.004;2022-08-06T09:21:58;28.90;53.40
39751;DHT22;37579;51.074;17.004;2022-08-06T09:24:25;28.90;53.40
39751;DHT22;37579;51.074;17.004;2022-08-06T09:27:05;28.90;53.40
39751;DHT22;37579;51.074;17.004;2022-08-06T09:29:32;28.80;53.30
39751;DHT22;37579;51.074;17.004;2022-08-06T09:31:59;28.90;53.40
39751;DHT22;37579;51.074;17.004;2022-08-06T09:34:36;28.90;53.30
39751;DHT22;37579;51.074;17.004;2022-08-06T09:37:02;28.90;53.30
39751;DHT22;37579;51.074;17.004;2022-08-06T09:39:32;28.90;53.30
39751;DHT22;37579;51.074;17.004;2022-08-06T09:42:00;28.90;53.30
39751;DHT22;37579;51.074;17.004;2022-08-06T09:44:26;28.90;53.30
39751;DHT22;37579;51.074;17.004;2022-08-06T09:46:52;28.90;53.30
39751;DHT22;37579;51.074;17.004;2022-08-06T09:49:19;28.90;53.20
39751;DHT22;37579;51.074;17.004;2022-08-06T09:51:45;28.90;53.20
39751;DHT22;37579;51.074;17.004;2022-08-06T09:54:12;28.90;53.20
39751;DHT22;37579;51.074;17.004;2022-08-06T09:56:45;28.90;53.20
39751;DHT22;37579;51.074;17.004;2022-08-06T09:59:12;28.90;53.10
39751;DHT22;37579;51.074;17.004;2022-08-06T10:01:40;29.00;53.10
39751;DHT22;37579;51.074;17.004;2022-08-06T10:04:07;29.00;53.10
39751;DHT22;37579;51.074;17.004;2022-08-06T10:06:52;29.00;53.10
39751;DHT22;37579;51.074;17.004;2022-08-06T10:09:18;29.00;53.10
39751;DHT22;37579;51.074;17.004;2022-08-06T10:11:44;29.00;53.00
39751;DHT22;37579;51.074;17.004;2022-08-06T10:14:28;28.90;53.00
39751;DHT22;37579;51.074;17.004;2022-08-06T10:19:29;29.00;52.90
39751;DHT22;37579;51.074;17.004;2022-08-06T10:21:55;29.00;52.90
39751;DHT22;37579;51.074;17.004;2022-08-06T10:24:22;29.00;52.90
39751;DHT22;37579;51.074;17.004;2022-08-06T10:26:49;29.00;52.80
39751;DHT22;37579;51.074;17.004;2022-08-06T10:29:15;29.00;52.80
39751;DHT22;37579;51.074;17.004;2022-08-06T10:31:43;29.10;52.90
39751;DHT22;37579;51.074;17.004;2022-08-06T10:34:16;29.10;52.90
39751;DHT22;37579;51.074;17.004;2022-08-06T10:36:59;29.10;52.90
39751;DHT22;37579;51.074;17.004;2022-08-06T10:39:30;29.10;52.80
39751;DHT22;37579;51.074;17.004;2022-08-06T10:41:58;29.10;52.80
39751;DHT22;37579;51.074;17.004;2022-08-06T10:44:25;29.10;52.70
39751;DHT22;37579;51.074;17.004;2022-08-06T10:46:53;29.10;52.70
39751;DHT22;37579;51.074;17.004;2022-08-06T10:49:22;29.10;52.70
39751;DHT22;37579;51.074;17.004;2022-08-06T10:51:49;29.10;52.70
39751;DHT22;37579;51.074;17.004;2022-08-06T10:54:17;29.10;52.60
39751;DHT22;37579;51.074;17.004;2022-08-06T10:56:46;29.10;52.60
39751;DHT22;37579;51.074;17.004;2022-08-06T10:59:16;29.10;52.60
39751;DHT22;37579;51.074;17.004;2022-08-06T11:15:41;29.10;52.50
39751;DHT22;37579;51.074;17.004;2022-08-06T11:18:09;29.10;52.50
39751;DHT22;37579;51.074;17.004;2022-08-06T11:20:38;29.10;52.50
39751;DHT22;37579;51.074;17.004;2022-08-06T11:25:51;29.10;52.50
39751;DHT22;37579;51.074;17.004;2022-08-06T11:31:06;29.10;52.50
39751;DHT22;37579;51.074;17.004;2022-08-06T11:33:58;29.10;52.40
39751;DHT22;37579;51.074;17.004;2022-08-06T11:36:26;29.10;52.40
39751;DHT22;37579;51.074;17.004;2022-08-06T11:46:26;29.10;52.40
39751;DHT22;37579;51.074;17.004;2022-08-06T11:59:21;29.10;52.50
39751;DHT22;37579;51.074;17.004;2022-08-06T12:01:47;29.10;52.60
39751;DHT22;37579;51.074;17.004;2022-08-06T12:14:50;29.10;52.40
39751;DHT22;37579;51.074;17.004;2022-08-06T12:17:18;29.10;52.50
39751;DHT22;37579;51.074;17.004;2022-08-06T12:19:46;29.10;52.40
39751;DHT22;37579;51.074;17.004;2022-08-06T12:22:13;29.10;52.40
39751;DHT22;37579;51.074;17.004;2022-08-06T12:24:45;29.10;52.40
39751;DHT22;37579;51.074;17.004;2022-08-06T12:27:12;29.10;52.40
39751;DHT22;37579;51.074;17.004;2022-08-06T12:29:38;29.10;52.40
39751;DHT22;37579;51.074;17.004;2022-08-06T12:34:52;29.10;52.30
39751;DHT22;37579;51.074;17.004;2022-08-06T12:37:19;29.10;52.30
39751;DHT22;37579;51.074;17.004;2022-08-06T12:39:45;29.10;52.40
39751;DHT22;37579;51.074;17.004;2022-08-06T12:42:30;29.10;52.40
39751;DHT22;37579;51.074;17.004;2022-08-06T12:44:57;29.10;52.30
39751;DHT22;37579;51.074;17.004;2022-08-06T12:47:23;29.10;52.30
39751;DHT22;37579;51.074;17.004;2022-08-06T12:49:54;29.10;52.30
39751;DHT22;37579;51.074;17.004;2022-08-06T12:52:21;29.10;52.40
39751;DHT22;37579;51.074;17.004;2022-08-06T12:54:48;29.10;52.30
39751;DHT22;37579;51.074;17.004;2022-08-06T12:57:27;29.10;52.30
39751;DHT22;37579;51.074;17.004;2022-08-06T12:59:56;29.10;52.20
39751;DHT22;37579;51.074;17.004;2022-08-06T13:02:24;29.10;52.20
39751;DHT22;37579;51.074;17.004;2022-08-06T13:04:53;29.10;52.20
39751;DHT22;37579;51.074;17.004;2022-08-06T13:07:19;29.10;52.20
39751;DHT22;37579;51.074;17.004;2022-08-06T13:09:46;29.10;52.20
39751;DHT22;37579;51.074;17.004;2022-08-06T13:12:18;29.10;52.20
39751;DHT22;37579;51.074;17.004;2022-08-06T13:14:53;29.10;52.20
39751;DHT22;37579;51.074;17.004;2022-08-06T13:17:19;29.10;52.20
39751;DHT22;37579;51.074;17.004;2022-08-06T13:19:56;29.10;52.10
39751;DHT22;37579;51.074;17.004;2022-08-06T13:22:24;29.10;52.20
39751;DHT22;37579;51.074;17.004;2022-08-06T13:25:09;29.10;52.20
39751;DHT22;37579;51.074;17.004;2022-08-06T13:27:35;29.10;52.20
39751;DHT22;37579;51.074;17.004;2022-08-06T13:30:06;29.10;52.30
39751;DHT22;37579;51.074;17.004;2022-08-06T13:32:33;29.10;52.20
39751;DHT22;37579;51.074;17.004;2022-08-06T13:35:08;29.10;52.20
39751;DHT22;37579;51.074;17.004;2022-08-06T13:37:45;29.10;52.20
39751;DHT22;37579;51.074;17.004;2022-08-06T13:40:14;29.10;52.20
39751;DHT22;37579;51.074;17.004;2022-08-06T13:42:54;29.10;52.20
39751;DHT22;37579;51.074;17.004;2022-08-06T13:45:25;29.10;52.10
39751;DHT22;37579;51.074;17.004;2022-08-06T13:48:05;29.10;52.20
39751;DHT22;37579;51.074;17.004;2022-08-06T13:50:37;29.10;52.10
39751;DHT22;37579;51.074;17.004;2022-08-06T13:53:03;29.10;52.10
39751;DHT22;37579;51.074;17.004;2022-08-06T13:55:29;29.10;52.10
39751;DHT22;37579;51.074;17.004;2022-08-06T13:57:56;29.00;52.00
39751;DHT22;37579;51.074;17.004;2022-08-06T14:00:23;29.10;52.10
39751;DHT22;37579;51.074;17.004;2022-08-06T14:02:49;29.00;52.00
39751;DHT22;37579;51.074;17.004;2022-08-06T14:05:15;29.00;52.10
39751;DHT22;37579;51.074;17.004;2022-08-06T14:07:40;29.10;52.10
39751;DHT22;37579;51.074;17.004;2022-08-06T14:10:07;29.10;52.10
39751;DHT22;37579;51.074;17.004;2022-08-06T14:12:33;29.10;52.00
39751;DHT22;37579;51.074;17.004;2022-08-06T14:14:59;29.10;52.00
39751;DHT22;37579;51.074;17.004;2022-08-06T14:17:26;29.10;52.00
39751;DHT22;37579;51.074;17.004;2022-08-06T14:19:51;29.10;52.00
39751;DHT22;37579;51.074;17.004;2022-08-06T14:22:17;29.00;52.00
39751;DHT22;37579;51.074;17.004;2022-08-06T14:24:44;29.00;52.00
39751;DHT22;37579;51.074;17.004;2022-08-06T14:27:10;29.00;52.00
39751;DHT22;37579;51.074;17.004;2022-08-06T14:29:36;29.00;52.00
39751;DHT22;37579;51.074;17.004;2022-08-06T14:32:03;29.00;52.00
39751;DHT22;37579;51.074;17.004;2022-08-06T14:34:29;29.00;52.00
39751;DHT22;37579;51.074;17.004;2022-08-06T14:36:55;29.00;52.00
39751;DHT22;37579;51.074;17.004;2022-08-06T14:39:21;29.00;52.00
39751;DHT22;37579;51.074;17.004;2022-08-06T14:41:47;29.00;52.00
39751;DHT22;37579;51.074;17.004;2022-08-06T14:44:31;29.00;52.00
39751;DHT22;37579;51.074;17.004;2022-08-06T14:47:15;29.00;52.00
39751;DHT22;37579;51.074;17.004;2022-08-06T14:49:41;29.00;52.00
39751;DHT22;37579;51.074;17.004;2022-08-06T14:52:08;29.10;52.00
39751;DHT22;37579;51.074;17.004;2022-08-06T14:54:34;29.10;52.00
39751;DHT22;37579;51.074;17.004;2022-08-06T14:57:06;29.00;51.90
39751;DHT22;37579;51.074;17.004;2022-08-06T14:59:32;29.00;51.90
39751;DHT22;37579;51.074;17.004;2022-08-06T15:01:57;29.10;52.00
39751;DHT22;37579;51.074;17.004;2022-08-06T15:04:23;29.10;51.90
39751;DHT22;37579;51.074;17.004;2022-08-06T15:06:50;29.10;51.90
39751;DHT22;37579;51.074;17.004;2022-08-06T15:09:16;29.10;52.00
39751;DHT22;37579;51.074;17.004;2022-08-06T15:11:41;29.00;51.90
39751;DHT22;37579;51.074;17.004;2022-08-06T15:14:07;29.00;51.90
39751;DHT22;37579;51.074;17.004;2022-08-06T15:16:33;29.00;51.80
39751;DHT22;37579;51.074;17.004;2022-08-06T15:18:59;29.00;51.80
39751;DHT22;37579;51.074;17.004;2022-08-06T15:21:25;29.00;51.90
39751;DHT22;37579;51.074;17.004;2022-08-06T15:23:51;29.00;51.90
39751;DHT22;37579;51.074;17.004;2022-08-06T15:26:19;29.00;51.90
39751;DHT22;37579;51.074;17.004;2022-08-06T15:28:45;29.00;51.90
39751;DHT22;37579;51.074;17.004;2022-08-06T15:31:11;29.00;51.90
39751;DHT22;37579;51.074;17.004;2022-08-06T15:33:37;29.00;51.80
39751;DHT22;37579;51.074;17.004;2022-08-06T15:36:04;29.00;51.90
39751;DHT22;37579;51.074;17.004;2022-08-06T15:38:30;29.00;51.90
39751;DHT22;37579;51.074;17.004;2022-08-06T15:40:56;29.00;51.90
39751;DHT22;37579;51.074;17.004;2022-08-06T15:43:23;29.00;52.60
39751;DHT22;37579;51.074;17.004;2022-08-06T15:45:52;29.00;51.90
39751;DHT22;37579;51.074;17.004;2022-08-06T15:48:18;29.00;51.90
39751;DHT22;37579;51.074;17.004;2022-08-06T15:50:46;29.00;52.00
39751;DHT22;37579;51.074;17.004;2022-08-06T15:53:15;29.00;51.90
39751;DHT22;37579;51.074;17.004;2022-08-06T15:55:41;29.00;51.90
39751;DHT22;37579;51.074;17.004;2022-08-06T15:58:07;29.00;51.90
39751;DHT22;37579;51.074;17.004;2022-08-06T16:00:34;29.00;51.90
39751;DHT22;37579;51.074;17.004;2022-08-06T16:03:00;29.00;51.90
39751;DHT22;37579;51.074;17.004;2022-08-06T16:05:26;29.00;52.00
39751;DHT22;37579;51.074;17.004;2022-08-06T16:07:51;29.00;51.90
39751;DHT22;37579;51.074;17.004;2022-08-06T16:10:17;29.00;51.90
39751;DHT22;37579;51.074;17.004;2022-08-06T16:12:44;29.00;52.50
39751;DHT22;37579;51.074;17.004;2022-08-06T16:15:10;29.00;51.80
39751;DHT22;37579;51.074;17.004;2022-08-06T16:17:36;29.00;51.90
39751;DHT22;37579;51.074;17.004;2022-08-06T16:20:03;29.00;51.90
39751;DHT22;37579;51.074;17.004;2022-08-06T16:22:29;29.00;51.90
39751;DHT22;37579;51.074;17.004;2022-08-06T16:24:55;29.00;51.90
39751;DHT22;37579;51.074;17.004;2022-08-06T16:27:21;29.00;51.90
39751;DHT22;37579;51.074;17.004;2022-08-06T16:29:47;29.00;51.90
39751;DHT22;37579;51.074;17.004;2022-08-06T16:32:14;29.00;51.90
39751;DHT22;37579;51.074;17.004;2022-08-06T16:34:43;29.00;51.90
39751;DHT22;37579;51.074;17.004;2022-08-06T16:37:09;28.90;51.80
39751;DHT22;37579;51.074;17.004;2022-08-06T16:39:35;28.90;51.90
39751;DHT22;37579;51.074;17.004;2022-08-06T16:42:02;29.00;51.90
39751;DHT22;37579;51.074;17.004;2022-08-06T16:44:28;28.90;51.80
39751;DHT22;37579;51.074;17.004;2022-08-06T16:46:54;28.90;51.80